createdAt,value
2023-03-04T00:02:50.493Z,0.35
2023-03-04T00:07:02.980Z,0.41
2023-03-04T00:11:26.065Z,0.33
2023-03-04T00:15:38.502Z,0.14
2023-03-04T00:19:51.177Z,0.17
2023-03-04T00:24:03.743Z,0.11
2023-03-04T00:28:16.189Z,0.25
2023-03-04T00:32:28.696Z,0.00
2023-03-04T00:36:41.207Z,0.03
2023-03-04T00:40:54.579Z,0.03
2023-03-04T00:45:08.007Z,-0.11
2023-03-04T00:49:20.450Z,-0.16
2023-03-04T00:53:32.909Z,-0.31
2023-03-04T00:57:45.508Z,-0.26
2023-03-04T01:01:58.487Z,-0.35
2023-03-04T01:06:12.232Z,-0.08
2023-03-04T01:10:27.309Z,-0.32
2023-03-04T01:14:39.780Z,-0.25
2023-03-04T01:18:52.240Z,-0.34
2023-03-04T01:23:04.716Z,-0.29
2023-03-04T01:27:17.553Z,-0.29
2023-03-04T01:31:30.262Z,-0.13
2023-03-04T01:35:43.499Z,-0.49
2023-03-04T01:39:56.070Z,-0.65
2023-03-04T01:44:18.650Z,-0.63
2023-03-04T01:48:37.856Z,-0.57
2023-03-04T01:52:50.263Z,-0.47
2023-03-04T01:57:02.803Z,-0.62
2023-03-04T02:01:15.436Z,-0.57
2023-03-04T02:05:29.378Z,-0.43
2023-03-04T02:09:41.832Z,-0.45
2023-03-04T02:13:54.453Z,-0.39
2023-03-04T02:18:22.579Z,-0.54
2023-03-04T02:22:41.374Z,-0.43
2023-03-04T02:27:04.031Z,-0.34
2023-03-04T02:31:37.724Z,-0.50
2023-03-04T02:36:00.431Z,-0.61
2023-03-04T02:40:25.015Z,-0.57
2023-03-04T02:44:40.678Z,-0.44
2023-03-04T02:48:53.821Z,-0.58
2023-03-04T02:53:06.985Z,-0.55
2023-03-04T02:57:19.582Z,-0.66
2023-03-04T03:01:32.005Z,-0.81
2023-03-04T03:05:55.244Z,-0.81
2023-03-04T03:10:08.083Z,-0.80
2023-03-04T03:14:20.555Z,-0.80
2023-03-04T03:18:33.075Z,-0.96
2023-03-04T03:22:45.743Z,-0.98
2023-03-04T03:26:58.165Z,-0.98
2023-03-04T03:31:10.657Z,-1.07
2023-03-04T03:35:23.267Z,-1.18
2023-03-04T03:39:35.719Z,-1.13
2023-03-04T03:43:49.762Z,-1.27
2023-03-04T03:48:02.290Z,-1.15
2023-03-04T03:52:14.862Z,-1.17
2023-03-04T03:56:27.299Z,-1.31
2023-03-04T04:00:39.752Z,-1.33
2023-03-04T04:04:52.216Z,-1.23
2023-03-04T04:09:04.706Z,-1.23
2023-03-04T04:13:17.170Z,-1.29
2023-03-04T04:17:40.558Z,-1.28
2023-03-04T04:21:53.048Z,-1.42
2023-03-04T04:26:05.895Z,-1.35
2023-03-04T04:30:18.639Z,-1.46
2023-03-04T04:34:31.192Z,-1.43
2023-03-04T04:38:53.665Z,-1.39
2023-03-04T04:43:16.172Z,-1.51
2023-03-04T04:47:28.677Z,-1.46
2023-03-04T04:51:41.445Z,-1.22
2023-03-04T04:55:53.858Z,-1.41
2023-03-04T05:00:15.938Z,-1.37
2023-03-04T05:04:28.518Z,-1.50
2023-03-04T05:08:51.952Z,-1.53
2023-03-04T05:13:04.401Z,-1.52
2023-03-04T05:17:17.034Z,-1.46
2023-03-04T05:21:29.541Z,-1.49
2023-03-04T05:25:41.977Z,-1.42
2023-03-04T05:29:56.404Z,-1.40
2023-03-04T05:34:08.841Z,-1.23
2023-03-04T05:38:22.378Z,-1.25
2023-03-04T05:42:34.861Z,-1.20
2023-03-04T05:46:47.401Z,-1.36
2023-03-04T05:51:02.494Z,-1.36
2023-03-04T05:55:15.649Z,-1.43
2023-03-04T05:59:28.130Z,-1.37
2023-03-04T06:03:40.804Z,-1.39
2023-03-04T06:07:53.265Z,-1.25
2023-03-04T06:12:05.839Z,-0.98
2023-03-04T06:16:18.469Z,-1.01
2023-03-04T06:20:30.939Z,-0.90
2023-03-04T06:24:53.372Z,-0.98
2023-03-04T06:29:07.430Z,-0.93
2023-03-04T06:33:20.521Z,-0.90
2023-03-04T06:37:33.514Z,-0.66
2023-03-04T06:41:46.005Z,-0.70
2023-03-04T06:45:58.436Z,-0.53
2023-03-04T06:50:21.086Z,-0.48
2023-03-04T06:54:33.798Z,-0.49
2023-03-04T06:58:47.337Z,-0.19
2023-03-04T07:03:00.465Z,-0.05
2023-03-04T07:07:13.169Z,0.22
2023-03-04T07:11:26.385Z,0.33
2023-03-04T07:15:39.095Z,0.36
2023-03-04T07:19:51.587Z,0.38
2023-03-04T07:24:04.190Z,0.63
2023-03-04T07:28:16.956Z,0.82
2023-03-04T07:32:29.439Z,0.62
2023-03-04T07:36:43.268Z,0.71
2023-03-04T07:40:58.265Z,1.01
2023-03-04T07:45:21.994Z,0.98
2023-03-04T07:49:34.508Z,0.90
2023-03-04T07:53:50.341Z,1.09
2023-03-04T07:58:04.034Z,1.32
2023-03-04T08:02:16.553Z,1.43
2023-03-04T08:06:30.070Z,1.29
2023-03-04T08:10:42.838Z,1.41
2023-03-04T08:14:55.292Z,1.37
2023-03-04T08:19:08.914Z,1.62
2023-03-04T08:23:21.591Z,1.78
2023-03-04T08:27:34.263Z,2.05
2023-03-04T08:31:48.916Z,1.91
2023-03-04T08:36:01.688Z,1.97
2023-03-04T08:40:15.178Z,2.06
2023-03-04T08:44:27.960Z,2.30
2023-03-04T08:48:40.421Z,2.49
2023-03-04T08:52:52.878Z,2.33
2023-03-04T08:57:05.399Z,2.23
2023-03-04T09:01:17.876Z,2.25
2023-03-04T09:05:31.451Z,2.86
2023-03-04T09:09:43.933Z,3.13
2023-03-04T09:13:56.447Z,3.00
2023-03-04T09:18:08.914Z,3.18
2023-03-04T09:22:21.360Z,3.30
2023-03-04T09:26:33.893Z,3.57
2023-03-04T09:30:46.541Z,3.64
2023-03-04T09:34:59.027Z,4.15
2023-03-04T09:39:11.730Z,4.50
2023-03-04T09:43:30.710Z,4.74
2023-03-04T09:47:45.655Z,4.68
2023-03-04T09:52:04.466Z,4.43
2023-03-04T09:56:17.218Z,4.58
2023-03-04T10:00:43.675Z,5.11
2023-03-04T10:05:01.875Z,4.93
2023-03-04T10:09:46.129Z,4.98
2023-03-04T10:14:12.126Z,5.04
2023-03-04T10:18:52.690Z,5.29
2023-03-04T10:23:15.894Z,5.72
2023-03-04T10:27:30.947Z,5.70
2023-03-04T10:31:44.674Z,6.28
2023-03-04T10:36:03.517Z,6.17
2023-03-04T10:40:26.343Z,6.54
2023-03-04T10:44:58.095Z,5.38
2023-03-04T10:49:17.844Z,5.45
2023-03-04T10:53:39.736Z,6.20
2023-03-04T10:58:03.881Z,6.50
2023-03-04T11:02:27.618Z,6.25
2023-03-04T11:06:42.143Z,6.46
2023-03-04T11:10:54.621Z,6.55
2023-03-04T11:15:21.317Z,6.08
2023-03-04T11:19:40.753Z,6.39
2023-03-04T11:24:13.319Z,6.73
2023-03-04T11:29:02.375Z,6.63
2023-03-04T11:33:47.708Z,7.80
2023-03-04T11:38:22.643Z,6.92
2023-03-04T11:43:04.907Z,7.22
2023-03-04T11:47:45.329Z,6.93
2023-03-04T11:52:13.292Z,7.64
2023-03-04T11:56:35.786Z,7.49
2023-03-04T12:01:34.298Z,7.95
2023-03-04T12:06:18.684Z,8.11
2023-03-04T12:10:54.902Z,7.27
2023-03-04T12:15:38.721Z,7.52
2023-03-04T12:20:38.507Z,6.91
2023-03-04T12:25:19.608Z,6.42
2023-03-04T12:30:17.451Z,6.64
2023-03-04T12:35:13.718Z,5.74
2023-03-04T12:39:38.709Z,5.80
2023-03-04T12:44:18.222Z,6.55
2023-03-04T12:48:40.693Z,5.60
2023-03-04T12:53:06.444Z,6.25
2023-03-04T12:57:26.827Z,5.90
2023-03-04T13:02:22.741Z,5.43
2023-03-04T13:07:01.696Z,5.75
2023-03-04T13:11:29.906Z,5.51
2023-03-04T13:15:42.451Z,5.27
2023-03-04T13:20:14.479Z,5.83
2023-03-04T13:24:52.478Z,5.45
2023-03-04T13:29:31.098Z,5.24
2023-03-04T13:33:43.412Z,5.81
2023-03-04T13:38:00.689Z,5.58
2023-03-04T13:42:43.450Z,6.42
2023-03-04T13:46:55.985Z,5.25
2023-03-04T13:51:29.736Z,5.37
2023-03-04T13:56:24.010Z,5.25
2023-03-04T14:00:37.376Z,4.26
2023-03-04T14:05:02.816Z,4.84
2023-03-04T14:09:31.343Z,4.88
2023-03-04T14:13:44.451Z,5.17
2023-03-04T14:18:06.751Z,4.81
2023-03-04T14:22:34.838Z,5.81
2023-03-04T14:26:48.466Z,5.51
2023-03-04T14:31:01.902Z,5.15
2023-03-04T14:35:26.920Z,4.60
2023-03-04T14:39:39.577Z,4.49
2023-03-04T14:43:58.846Z,4.15
2023-03-04T14:48:22.279Z,4.04
2023-03-04T14:52:45.095Z,4.27
2023-03-04T14:56:59.171Z,3.61
2023-03-04T15:01:23.911Z,3.12
2023-03-04T15:05:38.178Z,2.93
2023-03-04T15:09:54.727Z,3.10
2023-03-04T15:14:50.939Z,2.74
2023-03-04T15:19:30.900Z,2.54
2023-03-04T15:23:44.371Z,2.44
2023-03-04T15:27:57.658Z,2.50
2023-03-04T15:32:14.975Z,2.24
2023-03-04T15:36:27.657Z,2.32
2023-03-04T15:40:44.045Z,2.19
2023-03-04T15:44:56.538Z,1.70
2023-03-04T15:49:09.020Z,2.12
2023-03-04T15:53:53.118Z,2.11
2023-03-04T15:58:16.511Z,1.98
2023-03-04T16:02:39.291Z,1.84
2023-03-04T16:07:01.863Z,1.90
2023-03-04T16:11:21.802Z,1.64
2023-03-04T16:15:40.540Z,1.58
2023-03-04T16:19:53.645Z,1.51
2023-03-04T16:24:06.830Z,1.25
2023-03-04T16:28:19.459Z,0.85
2023-03-04T16:32:41.966Z,0.95
2023-03-04T16:36:54.661Z,0.88
2023-03-04T16:41:14.010Z,1.02
2023-03-04T16:45:28.318Z,1.04
2023-03-04T16:49:41.079Z,0.92
2023-03-04T16:53:57.432Z,0.87
2023-03-04T16:58:11.057Z,0.94
2023-03-04T17:02:27.519Z,0.84
2023-03-04T17:06:40.702Z,0.66
2023-03-04T17:10:53.411Z,0.72
2023-03-04T17:15:06.887Z,0.70
2023-03-04T17:19:19.381Z,0.58
2023-03-04T17:23:38.242Z,0.65
2023-03-04T17:27:51.667Z,0.78
2023-03-04T17:32:04.330Z,0.62
2023-03-04T17:36:19.626Z,0.63
2023-03-04T17:40:33.271Z,0.66
2023-03-04T17:44:46.374Z,0.61
2023-03-04T17:49:00.228Z,0.54
2023-03-04T17:53:12.837Z,0.34
2023-03-04T17:57:25.328Z,0.26
2023-03-04T18:01:37.860Z,0.30
2023-03-04T18:05:50.328Z,0.28
2023-03-04T18:10:02.995Z,0.33
2023-03-04T18:14:16.651Z,0.24
2023-03-04T18:18:29.292Z,0.20
2023-03-04T18:22:46.260Z,0.20
2023-03-04T18:26:58.906Z,0.17
2023-03-04T18:31:11.654Z,0.21
2023-03-04T18:35:24.128Z,0.37
2023-03-04T18:39:36.971Z,0.06
2023-03-04T18:43:52.190Z,0.35
2023-03-04T18:48:06.017Z,0.10
2023-03-04T18:52:18.579Z,0.31
2023-03-04T18:56:54.105Z,0.27
2023-03-04T19:01:10.671Z,0.20
2023-03-04T19:05:27.724Z,0.07
2023-03-04T19:09:40.196Z,0.08
2023-03-04T19:13:53.576Z,0.21
2023-03-04T19:18:06.337Z,0.21
2023-03-04T19:22:18.825Z,0.33
2023-03-04T19:26:31.464Z,0.31
2023-03-04T19:30:44.063Z,0.28
2023-03-04T19:34:56.683Z,0.26
2023-03-04T19:39:11.870Z,0.28
2023-03-04T19:43:37.622Z,0.36
2023-03-04T19:47:50.209Z,0.33
2023-03-04T19:52:03.159Z,0.40
2023-03-04T19:56:15.793Z,0.35
2023-03-04T20:00:38.420Z,0.41
2023-03-04T20:04:50.973Z,0.30
2023-03-04T20:09:03.866Z,0.15
2023-03-04T20:13:16.519Z,0.25
2023-03-04T20:17:29.042Z,0.27
2023-03-04T20:21:41.475Z,0.13
2023-03-04T20:25:56.429Z,0.19
2023-03-04T20:30:11.166Z,0.06
2023-03-04T20:34:24.623Z,0.07
2023-03-04T20:38:48.051Z,0.10
2023-03-04T20:43:00.551Z,0.08
2023-03-04T20:47:13.078Z,-0.02
2023-03-04T20:51:26.477Z,0.06
2023-03-04T20:55:38.983Z,0.10
2023-03-04T20:59:51.442Z,0.16
2023-03-04T21:04:05.186Z,0.21
2023-03-04T21:08:18.203Z,0.10
2023-03-04T21:12:30.712Z,-0.09
2023-03-04T21:16:43.876Z,-0.11
2023-03-04T21:20:56.408Z,-0.17
2023-03-04T21:25:09.515Z,0.12
2023-03-04T21:29:25.371Z,0.06
2023-03-04T21:33:37.903Z,0.07
2023-03-04T21:37:50.370Z,0.10
2023-03-04T21:42:12.850Z,0.15
2023-03-04T21:46:25.324Z,-0.04
2023-03-04T21:50:38.210Z,0.04
2023-03-04T21:54:50.828Z,0.28
2023-03-04T21:59:11.543Z,0.08
2023-03-04T22:03:24.812Z,0.04
2023-03-04T22:07:37.792Z,0.03
2023-03-04T22:11:50.274Z,-0.05
2023-03-04T22:16:02.973Z,-0.06
2023-03-04T22:20:15.623Z,-0.28
2023-03-04T22:24:28.344Z,-0.03
2023-03-04T22:28:41.930Z,0.06
2023-03-04T22:32:54.390Z,-0.02
2023-03-04T22:37:06.889Z,0.13
2023-03-04T22:41:21.313Z,-0.14
2023-03-04T22:45:34.487Z,-0.49
2023-03-04T22:49:48.256Z,-0.18
2023-03-04T22:54:00.773Z,-0.12
2023-03-04T22:58:13.193Z,-0.30
2023-03-04T23:02:25.816Z,-0.31
2023-03-04T23:06:38.488Z,-0.22
2023-03-04T23:10:51.196Z,-0.17
2023-03-04T23:15:04.029Z,-0.17
2023-03-04T23:19:26.527Z,0.15
2023-03-04T23:23:40.806Z,-0.05
2023-03-04T23:27:53.258Z,0.03
2023-03-04T23:32:06.110Z,-0.13
2023-03-04T23:36:19.906Z,0.04
2023-03-04T23:40:39.461Z,0.02
2023-03-04T23:44:52.010Z,-0.07
2023-03-04T23:49:15.323Z,-0.10
2023-03-04T23:53:28.062Z,-0.22
2023-03-04T23:57:40.491Z,-0.30
